Beech Grove, Kentucky
Current Conditions -  °F | °C
As of 2:56 PM on Sunday 21 Dec 2014 (Local Time) from KOWB Reporting Station
Clear Clear  
Wind Chill: 46°   Ceiling: Unl
Heat Index: 46°   Visibility: 10mi
Dew Point: 30°   Wind: 3mph
Humidity: 54%   Direction: NA
Pressure: 30.12"   Gusts: NA
Location:  37.61°N, 87.39°W
Report Text: KOWB 212056Z VRB03KT 10SM CLR 08/M01 A3012 RMK AO2 56033 T00771011 SLP202
Loading
Personal Weather Stations






























Interactive Weather Map New forecast layout! Learn more

10-Day Weather Forecast

Advertisements
Track Severe Weather on mobile